Time;durP1;ratioP1;P1;durP2;ratioP2;P2;SDS_P1;SDS_P2;PMS_P1;PMS_P2;Temp;Humidity;BMP_temperature;BMP_pressure;BME280_temperature;BME280_humidity;BME280_pressure;Samples;Min_cycle;Max_cycle;Signal;HPM_P1;HPM_P2
2022/11/18 00:01:46;;;;;;;6.87;1.10;;;;;;;6.40;100.00;99327.25;5056969;28;20060;-88
2022/11/18 00:04:11;;;;;;;8.63;1.98;;;;;;;6.37;100.00;99331.22;5057164;28;20048;-88
2022/11/18 00:07:44;;;;;;;7.93;1.60;;;;;;;6.35;100.00;99335.19;5073186;28;20040;-88
2022/11/18 00:10:10;;;;;;;4.65;1.45;;;;;;;6.30;100.00;99334.00;5025253;28;20044;-88
2022/11/18 00:16:10;;;;;;;6.93;1.50;;;;;;;6.29;100.00;99336.94;5074356;28;20117;-88
2022/11/18 00:18:39;;;;;;;5.65;1.65;;;;;;;6.22;100.00;99328.91;5073767;28;20040;-88
2022/11/18 00:21:20;;;;;;;8.57;1.60;;;;;;;6.27;100.00;99339.00;5074402;28;20404;-88
2022/11/18 00:23:48;;;;;;;6.53;1.60;;;;;;;6.28;100.00;99341.47;5073267;28;20045;-88
2022/11/18 00:26:14;;;;;;;3.42;1.30;;;;;;;6.22;100.00;99330.78;5074548;28;20072;-88
2022/11/18 00:36:16;;;;;;;5.03;1.38;;;;;;;6.38;100.00;99351.72;5073986;28;20047;-88
2022/11/18 00:38:44;;;;;;;7.07;1.60;;;;;;;6.45;100.00;99357.03;5074155;28;20040;-88
2022/11/18 00:41:14;;;;;;;5.13;1.30;;;;;;;6.53;100.00;99361.31;5075650;28;20039;-88
2022/11/18 00:43:48;;;;;;;7.65;1.50;;;;;;;6.56;100.00;99366.25;5094145;28;20070;-88
2022/11/18 00:46:14;;;;;;;9.68;2.25;;;;;;;6.57;100.00;99363.34;5076389;28;20036;-88
2022/11/18 00:49:03;;;;;;;3.60;1.30;;;;;;;6.63;100.00;99377.78;5075759;28;20042;-88
2022/11/18 00:51:40;;;;;;;3.80;1.48;;;;;;;6.59;100.00;99372.00;5076035;28;20032;-88
2022/11/18 00:54:07;;;;;;;4.80;1.48;;;;;;;6.66;100.00;99378.16;5076068;28;20053;-88
2022/11/18 00:56:33;;;;;;;5.97;1.50;;;;;;;6.68;100.00;99381.44;5075719;28;20036;-88
2022/11/18 00:59:01;;;;;;;5.20;1.33;;;;;;;6.66;100.00;99380.03;5076182;28;20044;-88
2022/11/18 01:04:48;;;;;;;4.95;1.42;;;;;;;6.78;100.00;99390.88;5093897;28;20034;-88
2022/11/18 01:07:16;;;;;;;8.70;1.57;;;;;;;6.78;100.00;99398.97;5076624;28;20044;-88
2022/11/18 01:09:41;;;;;;;3.45;1.25;;;;;;;6.76;100.00;99395.66;5075856;28;20564;-88
2022/11/18 01:15:03;;;;;;;3.58;1.40;;;;;;;6.81;100.00;99402.03;5094231;28;20135;-89
2022/11/18 01:17:36;;;;;;;5.28;1.50;;;;;;;6.79;100.00;99403.28;5059019;28;20033;-89
2022/11/18 01:20:10;;;;;;;3.50;1.33;;;;;;;6.81;100.00;99410.09;5093913;28;20071;-89
2022/11/18 01:22:38;;;;;;;4.07;1.30;;;;;;;6.91;100.00;99414.97;5076558;28;20538;-89
2022/11/18 01:25:04;;;;;;;5.60;1.50;;;;;;;6.89;100.00;99402.75;5076122;28;20051;-89
2022/11/18 01:27:32;;;;;;;6.20;1.70;;;;;;;6.92;100.00;99410.41;5076426;28;20040;-89
2022/11/18 01:29:58;;;;;;;6.57;1.50;;;;;;;6.98;100.00;99425.66;5094023;28;20044;-89
2022/11/18 01:32:24;;;;;;;6.35;1.38;;;;;;;7.02;100.00;99433.06;5071852;28;20051;-89
2022/11/18 01:34:51;;;;;;;3.47;1.40;;;;;;;6.98;100.00;99425.66;5075775;28;20144;-89
2022/11/18 01:37:17;;;;;;;7.32;1.70;;;;;;;7.06;100.00;99435.31;5075772;28;20044;-89
2022/11/18 01:39:54;;;;;;;5.50;1.47;;;;;;;7.05;100.00;99429.09;5076661;28;20131;-89
2022/11/18 01:42:23;;;;;;;7.80;1.67;;;;;;;7.07;100.00;99437.81;5075166;28;20040;-89
2022/11/18 01:45:09;;;;;;;4.68;1.27;;;;;;;7.15;100.00;99444.75;5093196;28;20059;-88
2022/11/18 01:47:44;;;;;;;5.43;1.77;;;;;;;7.11;100.00;99438.97;5075357;28;20032;-89
2022/11/18 01:53:39;;;;;;;5.07;1.52;;;;;;;7.18;100.00;99444.31;5097414;28;20066;-89
2022/11/18 01:56:59;;;;;;;4.40;1.30;;;;;;;7.21;100.00;99446.53;5079757;28;20043;-88
2022/11/18 01:59:29;;;;;;;6.93;1.30;;;;;;;7.26;100.00;99460.16;5080139;28;20028;-89
2022/11/18 02:02:01;;;;;;;9.98;1.45;;;;;;;7.30;100.00;99461.34;5079253;28;20044;-88
2022/11/18 02:04:33;;;;;;;3.30;1.60;;;;;;;7.31;100.00;99454.91;5079508;28;20472;-89
2022/11/18 02:07:01;;;;;;;5.93;1.40;;;;;;;7.35;100.00;99452.56;5079006;28;20454;-89
2022/11/18 02:09:30;;;;;;;6.60;1.42;;;;;;;7.39;100.00;99461.88;5078674;28;20123;-89
2022/11/18 02:12:07;;;;;;;7.63;1.55;;;;;;;7.43;100.00;99460.38;5079567;28;20059;-89
2022/11/18 02:14:42;;;;;;;4.13;1.40;;;;;;;7.41;100.00;99467.88;5063146;28;20051;-89
2022/11/18 02:17:22;;;;;;;7.90;1.67;;;;;;;7.50;100.00;99471.03;5078938;28;20024;-89
2022/11/18 02:20:11;;;;;;;5.80;1.70;;;;;;;7.55;100.00;99469.31;5079208;28;20165;-89
2022/11/18 02:29:57;;;;;;;5.10;1.58;;;;;;;7.62;100.00;99485.44;5034728;28;20043;-89
2022/11/18 02:32:47;;;;;;;4.70;1.27;;;;;;;7.58;100.00;99478.84;5017669;28;20049;-89
2022/11/18 02:38:30;;;;;;;6.20;1.52;;;;;;;7.63;100.00;99487.09;5034896;28;20045;-89
2022/11/18 02:41:18;;;;;;;7.80;1.40;;;;;;;7.67;100.00;99484.75;5017859;28;20033;-89
2022/11/18 02:43:52;;;;;;;3.40;1.33;;;;;;;7.66;100.00;99493.88;5034174;28;20163;-89
2022/11/18 02:52:50;;;;;;;6.65;1.67;;;;;;;7.72;100.00;99507.31;5014392;28;20149;-89
2022/11/18 02:55:20;;;;;;;4.20;1.50;;;;;;;7.72;100.00;99504.59;4998757;28;20092;-89
2022/11/18 02:57:46;;;;;;;8.70;1.65;;;;;;;7.71;100.00;99511.03;5060135;28;20552;-89
2022/11/18 03:00:12;;;;;;;4.03;1.40;;;;;;;7.71;100.00;99510.22;5056064;28;20041;-89
2022/11/18 03:03:26;;;;;;;3.63;1.50;;;;;;;7.73;100.00;99519.72;5040283;28;20074;-89
2022/11/18 03:09:16;;;;;;;6.25;2.30;;;;;;;7.70;100.00;99517.47;5073906;28;20578;-89
2022/11/18 03:22:17;;;;;;;6.72;2.17;;;;;;;7.68;100.00;99527.69;5096292;28;20059;-89
2022/11/18 03:24:54;;;;;;;10.43;1.77;;;;;;;7.69;100.00;99536.63;5077692;28;20124;-89
2022/11/18 03:27:26;;;;;;;8.82;2.20;;;;;;;7.66;100.00;99534.38;5096169;28;20036;-89
2022/11/18 03:30:02;;;;;;;7.38;2.00;;;;;;;7.66;100.00;99535.22;5078018;28;20032;-88
2022/11/18 03:35:56;;;;;;;7.35;1.65;;;;;;;7.62;100.00;99543.97;5095406;28;20051;-89
2022/11/18 03:38:48;;;;;;;5.93;2.03;;;;;;;7.64;100.00;99547.28;5077840;28;20028;-89
2022/11/18 03:41:20;;;;;;;6.53;1.75;;;;;;;7.58;100.00;99548.22;5077389;28;20115;-89
2022/11/18 03:44:15;;;;;;;5.93;1.88;;;;;;;7.54;100.00;99550.50;5077702;28;20282;-89
2022/11/18 03:50:17;;;;;;;5.13;1.40;;;;;;;7.53;100.00;99563.19;5095489;28;20173;-89
2022/11/18 03:56:25;;;;;;;6.20;1.77;;;;;;;7.50;100.00;99576.31;5095247;28;20035;-89
2022/11/18 04:02:16;;;;;;;5.10;1.52;;;;;;;7.47;100.00;99566.81;5094961;28;20039;-89
2022/11/18 04:04:44;;;;;;;6.30;1.70;;;;;;;7.43;100.00;99571.00;5077170;28;20040;-89
2022/11/18 04:07:27;;;;;;;5.40;1.63;;;;;;;7.41;100.00;99586.63;5076426;28;20040;-89
2022/11/18 04:13:23;;;;;;;5.90;1.92;;;;;;;7.30;100.00;99598.97;5094702;28;20507;-89
2022/11/18 04:15:49;;;;;;;6.13;1.70;;;;;;;7.24;100.00;99597.16;5077545;28;20047;-89
2022/11/18 04:18:16;;;;;;;7.25;1.73;;;;;;;7.19;100.00;99595.13;5094902;28;20032;-89
2022/11/18 04:20:57;;;;;;;5.72;1.40;;;;;;;7.22;100.00;99603.81;5094508;28;20111;-89
2022/11/18 04:23:23;;;;;;;3.93;1.83;;;;;;;7.16;100.00;99605.53;5095288;28;20032;-89
2022/11/18 04:25:49;;;;;;;7.38;1.73;;;;;;;7.04;100.00;99597.34;5060491;28;20380;-89
2022/11/18 04:28:17;;;;;;;10.17;1.90;;;;;;;6.99;100.00;99605.31;5076743;28;20047;-89
2022/11/18 04:30:59;;;;;;;9.43;2.20;;;;;;;7.03;100.00;99612.72;5094786;28;20120;-89
2022/11/18 04:36:52;;;;;;;8.00;1.63;;;;;;;6.88;100.00;99616.81;5094814;28;20078;-89
2022/11/18 04:39:27;;;;;;;6.72;2.13;;;;;;;6.80;100.00;99615.22;5094482;28;20468;-89
2022/11/18 04:41:55;;;;;;;8.98;2.25;;;;;;;6.75;100.00;99618.59;5094994;28;20057;-89
2022/11/18 04:44:27;;;;;;;6.57;2.05;;;;;;;6.70;100.00;99622.97;5076118;28;20489;-89
2022/11/18 04:50:27;;;;;;;10.23;2.30;;;;;;;6.58;100.00;99629.06;5094151;28;20561;-89
2022/11/18 04:52:52;;;;;;;10.07;2.28;;;;;;;6.56;100.00;99636.56;5094033;28;20035;-89
2022/11/18 04:55:19;;;;;;;12.88;2.83;;;;;;;6.53;100.00;99637.00;5075727;28;20488;-89
2022/11/18 04:57:47;;;;;;;6.45;2.15;;;;;;;6.49;100.00;99635.78;5076484;28;20102;-89
2022/11/18 05:00:13;;;;;;;8.48;2.40;;;;;;;6.43;100.00;99642.03;5060281;28;20471;-89
2022/11/18 05:02:40;;;;;;;9.85;2.70;;;;;;;6.50;100.00;99650.91;5094466;28;20028;-89
2022/11/18 05:08:40;;;;;;;9.48;2.35;;;;;;;6.46;100.00;99663.97;5094125;28;20051;-89
2022/11/18 05:14:30;;;;;;;4.65;2.42;;;;;;;6.41;100.00;99660.31;5093770;28;20128;-89
2022/11/18 05:27:22;;;;;;;7.35;2.60;;;;;;;6.24;100.00;99671.56;5094286;28;20032;-89
2022/11/18 05:33:20;;;;;;;7.72;2.83;;;;;;;6.15;100.00;99675.56;5093809;28;20475;-88
2022/11/18 05:35:52;;;;;;;10.18;2.70;;;;;;;6.17;100.00;99675.34;5059621;28;20060;-89
2022/11/18 05:38:18;;;;;;;6.50;2.58;;;;;;;6.13;100.00;99677.66;5058983;28;20047;-89
2022/11/18 05:40:43;;;;;;;5.90;3.00;;;;;;;6.09;100.00;99685.31;5042516;28;20093;-89
2022/11/18 05:43:15;;;;;;;5.18;2.85;;;;;;;6.06;100.00;99688.44;5042526;28;20101;-89
2022/11/18 05:45:43;;;;;;;4.83;2.77;;;;;;;6.02;100.00;99683.72;5042413;28;20096;-89
2022/11/18 05:48:08;;;;;;;11.93;3.50;;;;;;;5.99;100.00;99692.22;5075133;28;20028;-89
2022/11/18 05:50:36;;;;;;;10.15;3.28;;;;;;;5.97;100.00;99695.13;5075536;28;20472;-89
2022/11/18 05:53:23;;;;;;;9.88;3.38;;;;;;;5.96;100.00;99707.75;5058692;28;20040;-89
2022/11/18 05:59:20;;;;;;;8.57;3.47;;;;;;;5.92;100.00;99719.13;5093419;28;20101;-89
2022/11/18 06:01:52;;;;;;;8.02;3.30;;;;;;;5.87;100.00;99714.38;5075254;28;20119;-89
2022/11/18 06:04:27;;;;;;;8.70;3.30;;;;;;;5.84;100.00;99717.50;5093487;28;20036;-89
2022/11/18 06:10:17;;;;;;;6.85;3.28;;;;;;;5.87;100.00;99724.31;5031868;28;20080;-89
2022/11/18 06:12:46;;;;;;;6.95;3.13;;;;;;;5.82;100.00;99724.13;5014466;28;20033;-89
2022/11/18 06:15:17;;;;;;;11.57;3.65;;;;;;;5.83;100.00;99731.16;5014539;28;20067;-89
2022/11/18 06:17:48;;;;;;;12.23;3.25;;;;;;;5.78;100.00;99724.56;5030971;28;20046;-89
2022/11/18 06:23:23;;;;;;;9.82;3.58;;;;;;;5.72;100.00;99733.47;5016458;28;20048;-89
2022/11/18 06:25:48;;;;;;;11.02;3.92;;;;;;;5.74;100.00;99749.41;5014017;28;20046;-89
2022/11/18 06:28:17;;;;;;;9.38;3.70;;;;;;;5.70;100.00;99748.16;5014457;28;20049;-89
2022/11/18 06:30:43;;;;;;;9.70;4.03;;;;;;;5.70;100.00;99751.72;5014150;28;20042;-89
2022/11/18 06:36:54;;;;;;;8.25;4.03;;;;;;;5.59;100.00;99763.91;5035109;28;20512;-89
2022/11/18 06:48:51;;;;;;;6.72;4.20;;;;;;;5.55;100.00;99788.78;5076237;28;20093;-88
2022/11/18 06:51:17;;;;;;;9.63;4.30;;;;;;;5.58;100.00;99794.56;5074820;28;20139;-91
2022/11/18 06:53:42;;;;;;;7.80;3.97;;;;;;;5.58;100.00;99788.34;5057693;28;20047;-90
2022/11/18 06:56:13;;;;;;;12.20;5.00;;;;;;;5.58;100.00;99788.34;5041768;28;20524;-91
2022/11/18 06:58:42;;;;;;;7.75;4.50;;;;;;;5.58;100.00;99797.28;5076221;28;20404;-90
2022/11/18 07:01:11;;;;;;;9.88;3.90;;;;;;;5.55;100.00;99786.06;5074796;28;20033;-91
2022/11/18 07:03:41;;;;;;;8.50;4.10;;;;;;;5.61;100.00;99802.22;5058066;28;20500;-88
2022/11/18 07:06:07;;;;;;;9.90;4.20;;;;;;;5.56;100.00;99803.88;5075648;28;20039;-88
2022/11/18 07:08:40;;;;;;;12.23;3.90;;;;;;;5.55;100.00;99810.28;5074241;28;20392;-88
2022/11/18 07:11:09;;;;;;;9.50;4.05;;;;;;;5.57;100.00;99814.44;5074275;28;20409;-89
2022/11/18 07:13:37;;;;;;;10.77;4.43;;;;;;;5.54;100.00;99816.72;5074169;28;20124;-88
2022/11/18 07:16:12;;;;;;;7.82;4.07;;;;;;;5.58;100.00;99812.56;5074328;28;20435;-88
2022/11/18 07:18:42;;;;;;;11.37;3.93;;;;;;;5.52;100.00;99819.63;5075476;28;20499;-87
2022/11/18 07:21:25;;;;;;;11.23;4.18;;;;;;;5.54;100.00;99817.56;5074115;28;20045;-88
2022/11/18 07:23:56;;;;;;;9.65;3.97;;;;;;;5.54;100.00;99830.19;5074715;28;20106;-88
2022/11/18 07:26:22;;;;;;;10.18;4.00;;;;;;;5.45;100.00;99821.50;5075467;28;20060;-88
2022/11/18 07:28:52;;;;;;;14.23;4.37;;;;;;;5.43;100.00;99828.94;5073572;28;20477;-88
2022/11/18 07:31:21;;;;;;;11.05;4.90;;;;;;;5.42;100.00;99836.19;5057635;28;20082;-88
2022/11/18 07:34:02;;;;;;;11.65;3.92;;;;;;;5.42;100.00;99835.34;5064787;28;20094;-87
2022/11/18 07:36:30;;;;;;;10.40;4.18;;;;;;;5.43;100.00;99848.59;5037899;28;20083;-87
2022/11/18 07:39:06;;;;;;;13.80;4.47;;;;;;;5.43;100.00;99840.53;5054015;28;20287;-87
2022/11/18 07:41:32;;;;;;;8.70;3.90;;;;;;;5.49;100.00;99854.19;5053917;28;20127;-88
2022/11/18 07:44:06;;;;;;;10.30;4.70;;;;;;;5.48;100.00;99849.81;5054071;28;20393;-88
2022/11/18 07:46:36;;;;;;;11.10;4.50;;;;;;;5.47;100.00;99851.69;5037305;28;20437;-88
2022/11/18 07:49:12;;;;;;;10.73;4.47;;;;;;;5.49;100.00;99857.69;5056336;28;20040;-88
2022/11/18 07:51:53;;;;;;;12.60;4.60;;;;;;;5.50;100.00;99863.91;5058072;28;20131;-87
2022/11/18 07:54:23;;;;;;;9.83;4.47;;;;;;;5.55;100.00;99864.97;5056172;28;20130;-88
2022/11/18 07:56:49;;;;;;;10.90;4.45;;;;;;;5.65;100.00;99877.16;5056863;28;20040;-88
2022/11/18 07:59:19;;;;;;;10.30;4.60;;;;;;;5.65;100.00;99875.28;5072880;28;20044;-88
2022/11/18 08:01:47;;;;;;;12.15;4.15;;;;;;;5.67;100.00;99875.94;5073370;28;20499;-88
2022/11/18 08:04:14;;;;;;;10.98;4.50;;;;;;;5.74;100.00;99886.69;5074854;28;20047;-88
2022/11/18 08:06:44;;;;;;;13.15;5.03;;;;;;;5.71;100.00;99885.22;5074690;28;20039;-88
2022/11/18 08:09:17;;;;;;;10.02;3.85;;;;;;;5.77;100.00;99880.88;5057697;28;20071;-88
2022/11/18 08:11:56;;;;;;;11.38;4.30;;;;;;;5.83;100.00;99892.69;5057118;28;20131;-88
2022/11/18 08:14:25;;;;;;;9.23;4.75;;;;;;;5.83;100.00;99895.38;5073708;28;20044;-88
2022/11/18 08:16:50;;;;;;;16.38;4.50;;;;;;;5.88;100.00;99900.97;5073765;28;20044;-88
2022/11/18 08:19:18;;;;;;;7.90;4.30;;;;;;;5.86;100.00;99909.28;5073462;28;20488;-88
2022/11/18 08:21:46;;;;;;;10.93;4.10;;;;;;;5.88;100.00;99903.69;5074566;28;20033;-88
2022/11/18 08:24:12;;;;;;;12.52;4.28;;;;;;;5.94;100.00;99910.91;5074742;28;20035;-88
2022/11/18 08:26:43;;;;;;;8.47;4.30;;;;;;;5.92;100.00;99913.81;5082432;28;20032;-88
2022/11/18 08:29:24;;;;;;;;;;;;;;;;;;;;;
2022/11/18 08:31:53;;;;;;;12.75;4.95;;;;;;;6.01;100.00;99919.00;5075944;28;20380;-89
2022/11/18 08:34:24;;;;;;;10.70;4.43;;;;;;;6.04;100.00;99913.19;5073196;28;20143;-88
2022/11/18 08:36:49;;;;;;;9.18;4.57;;;;;;;6.07;100.00;99910.94;5074563;28;20036;-89
2022/11/18 08:39:23;;;;;;;12.60;4.53;;;;;;;6.16;100.00;99916.94;5072675;28;20029;-88
2022/11/18 08:41:50;;;;;;;14.77;4.80;;;;;;;6.19;100.00;99918.41;5056434;28;20047;-88
2022/11/18 08:44:19;;;;;;;11.52;4.85;;;;;;;6.24;100.00;99908.63;5072440;28;20105;-88
2022/11/18 08:46:52;;;;;;;12.60;5.30;;;;;;;6.37;100.00;99918.56;5072244;28;20040;-88
2022/11/18 08:49:17;;;;;;;11.93;5.10;;;;;;;6.45;100.00;99922.88;5056203;28;20139;-89
2022/11/18 08:51:45;;;;;;;14.98;4.88;;;;;;;6.52;100.00;99926.38;5073235;28;20124;-88
2022/11/18 08:54:30;;;;;;;9.85;5.00;;;;;;;6.60;100.00;99922.63;5073506;28;20048;-88
2022/11/18 08:56:56;;;;;;;7.35;4.45;;;;;;;6.71;100.00;99930.06;5073647;28;20496;-88
2022/11/18 08:59:24;;;;;;;10.50;4.40;;;;;;;6.76;100.00;99927.59;5071969;28;20047;-88
2022/11/18 09:01:59;;;;;;;;;;;;;;;;;;;;;
2022/11/18 09:04:25;;;;;;;9.50;4.25;;;;;;;6.87;100.00;99928.78;5074389;28;20441;-88
2022/11/18 09:07:01;;;;;;;16.33;4.43;;;;;;;6.94;100.00;99929.59;5074061;28;20047;-88
2022/11/18 09:09:31;;;;;;;15.10;4.75;;;;;;;6.92;100.00;99934.34;5072648;28;20275;-88
2022/11/18 09:12:06;;;;;;;15.98;4.60;;;;;;;6.98;100.00;99940.75;5055708;28;20037;-88
2022/11/18 09:14:44;;;;;;;12.55;4.97;;;;;;;7.05;100.00;99946.13;5072809;28;20042;-88
2022/11/18 09:17:20;;;;;;;;;;;;;;;;;;;;;
2022/11/18 09:19:47;;;;;;;8.25;4.00;;;;;;;7.16;100.00;99948.13;5073376;28;20040;-89
2022/11/18 09:22:17;;;;;;;10.48;4.15;;;;;;;7.19;100.00;99956.66;5072190;28;20466;-88
2022/11/18 09:24:53;;;;;;;9.23;4.28;;;;;;;7.20;100.00;99954.75;5072357;28;20051;-88
2022/11/18 09:27:19;;;;;;;10.98;4.28;;;;;;;7.25;100.00;99963.06;5055669;28;20455;-88
2022/11/18 09:29:57;;;;;;;;;;;;;;;;;;;;;
2022/11/18 09:32:28;;;;;;;12.65;4.28;;;;;;;7.31;100.00;99956.78;5073918;28;20039;-88
2022/11/18 09:34:53;;;;;;;10.20;4.10;;;;;;;7.37;100.00;99964.03;5055267;28;20512;-89
2022/11/18 09:37:21;;;;;;;9.43;3.30;;;;;;;7.47;100.00;99971.66;5072289;28;20037;-88
2022/11/18 09:39:50;;;;;;;10.00;3.25;;;;;;;7.59;100.00;99981.75;5073393;28;20053;-88
2022/11/18 09:42:46;;;;;;;7.93;3.72;;;;;;;7.76;100.00;99990.19;5055544;28;20139;-88
2022/11/18 09:45:32;;;;;;;;;;;;;;;;;;;;;
2022/11/18 09:49:11;;;;;;;10.32;3.30;;;;;;;7.98;100.00;99985.25;5073748;28;20043;-89
2022/11/18 09:51:10;;;;;;;12.00;3.40;;;;;;;8.16;100.00;99989.88;5072856;28;20452;-88
2022/11/18 09:53:43;;;;;;;10.20;3.47;;;;;;;8.30;100.00;99996.84;5071621;28;20047;-88
2022/11/18 09:56:23;;;;;;;10.18;3.13;;;;;;;8.51;100.00;100003.72;5073678;28;20064;-88
2022/11/18 09:58:51;;;;;;;12.60;2.90;;;;;;;8.63;100.00;100003.81;5072078;28;20477;-88
2022/11/18 10:01:25;;;;;;;10.93;2.83;;;;;;;8.66;100.00;100011.50;5071969;28;20040;-89
2022/11/18 10:04:13;;;;;;;10.13;2.67;;;;;;;8.71;100.00;100013.53;5072143;28;20078;-89
2022/11/18 10:06:43;;;;;;;12.80;2.83;;;;;;;8.82;100.00;100014.69;5057798;28;20040;-89
2022/11/18 10:09:25;;;;;;;8.82;2.63;;;;;;;8.94;100.00;100018.28;5073203;28;20048;-89
2022/11/18 10:12:34;;;;;;;7.90;2.30;;;;;;;9.09;100.00;100017.91;5076079;28;20052;-88
2022/11/18 10:15:14;;;;;;;7.87;2.33;;;;;;;9.21;100.00;100018.81;5076431;28;20079;-89
2022/11/18 10:17:48;;;;;;;5.85;2.15;;;;;;;9.51;100.00;100014.47;5075472;28;20389;-90
2022/11/18 10:20:30;;;;;;;10.18;1.88;;;;;;;9.71;100.00;100009.59;5075371;28;20404;-89
2022/11/18 10:23:09;;;;;;;6.72;2.10;;;;;;;9.87;100.00;100013.56;5074899;28;20040;-89
2022/11/18 10:25:34;;;;;;;6.80;1.60;;;;;;;9.93;96.85;100017.22;5076721;28;20040;-89
2022/11/18 10:31:35;;;;;;;5.35;1.55;;;;;;;9.49;97.05;100036.38;5076622;28;20029;-89
2022/11/18 10:34:15;;;;;;;8.70;1.70;;;;;;;9.35;98.78;100026.78;5086038;28;20052;-89
2022/11/18 10:36:42;;;;;;;5.82;1.50;;;;;;;9.44;97.82;100038.94;5079342;28;20040;-89
2022/11/18 10:39:16;;;;;;;4.47;1.50;;;;;;;9.43;97.81;100035.41;5078473;28;20039;-89
2022/11/18 10:42:01;;;;;;;;;;;;;;;;;;;;;
2022/11/18 10:44:58;;;;;;;5.93;1.55;;;;;;;9.62;96.96;100038.91;5096648;28;20043;-89
2022/11/18 10:47:34;;;;;;;;;;;;;;;;;;;;;
2022/11/18 10:50:21;;;;;;;6.50;1.65;;;;;;;9.48;97.02;100035.56;5097116;28;20028;-89
2022/11/18 10:53:05;;;;;;;;;;;;;;;;;;;;;
2022/11/18 10:55:34;;;;;;;6.38;1.50;;;;;;;9.55;97.17;100054.44;5080250;28;20040;-88
2022/11/18 10:58:09;;;;;;;5.05;1.65;;;;;;;9.51;97.20;100053.22;5078447;28;20043;-89
2022/11/18 11:00:45;;;;;;;10.13;2.40;;;;;;;9.58;97.64;100053.97;5078445;28;20051;-89
2022/11/18 11:03:22;;;;;;;6.47;1.77;;;;;;;9.64;96.97;100044.94;5077898;28;20032;-89
2022/11/18 11:06:07;;;;;;;5.13;1.50;;;;;;;9.73;97.49;100044.59;5096007;28;20032;-87
2022/11/18 11:08:48;;;;;;;9.63;1.50;;;;;;;9.94;96.36;100052.22;5077733;28;20040;-88
2022/11/18 11:11:31;;;;;;;6.22;2.40;;;;;;;9.90;95.20;100050.22;5077733;28;20044;-89
2022/11/18 11:14:22;;;;;;;6.43;2.13;;;;;;;9.92;95.49;100051.63;5067978;28;20051;-89
2022/11/18 11:16:53;;;;;;;12.38;1.88;;;;;;;10.01;94.43;100069.22;5076304;28;20044;-89
2022/11/18 11:19:23;;;;;;;8.00;1.63;;;;;;;10.00;94.70;100064.03;5076207;28;20116;-88
2022/11/18 11:22:26;;;;;;;;;;;;;;;;;;;;;
2022/11/18 11:24:55;;;;;;;7.57;2.00;;;;;;;9.91;94.17;100060.00;5074998;28;20040;-89
2022/11/18 11:28:08;;;;;;;7.87;1.93;;;;;;;10.00;95.29;100058.59;5057672;28;20032;-88
2022/11/18 11:31:07;;;;;;;8.10;2.08;;;;;;;10.05;93.78;100056.00;5075855;28;20043;-89
2022/11/18 11:33:43;;;;;;;9.07;1.95;;;;;;;9.98;94.17;100066.13;5044168;28;20043;-89
2022/11/18 11:36:14;;;;;;;7.70;1.92;;;;;;;9.90;94.20;100067.28;5056405;28;20047;-89
2022/11/18 11:39:03;;;;;;;;;;;;;;;;;;;;;
2022/11/18 11:41:41;;;;;;;12.20;2.33;;;;;;;9.64;96.03;100063.88;5075460;28;20037;-89
2022/11/18 11:44:31;;;;;;;9.80;2.20;;;;;;;9.75;96.32;100078.53;5056575;28;20041;-88
2022/11/18 11:50:28;;;;;;;5.50;1.75;;;;;;;9.92;96.05;100075.19;5074823;28;20056;-88
2022/11/18 11:53:21;;;;;;;6.63;1.98;;;;;;;9.94;95.89;100073.91;5056716;28;20103;-88
2022/11/18 11:56:05;;;;;;;12.23;2.10;;;;;;;10.09;95.69;100072.66;5075510;28;20041;-88
2022/11/18 11:58:55;;;;;;;9.98;2.45;;;;;;;10.24;94.46;100081.16;5057367;28;20044;-88
2022/11/18 12:01:38;;;;;;;6.47;2.03;;;;;;;10.29;93.88;100084.03;5057029;28;20051;-88
2022/11/18 12:04:36;;;;;;;8.18;1.80;;;;;;;10.30;93.80;100080.25;5057843;28;20041;-89
2022/11/18 12:07:16;;;;;;;5.93;1.90;;;;;;;10.39;93.06;100077.22;5075251;28;20039;-89
2022/11/18 12:10:07;;;;;;;16.17;2.27;;;;;;;10.78;91.66;100078.47;5074342;28;20094;-88
2022/11/18 12:12:41;;;;;;;7.43;2.13;;;;;;;11.03;90.05;100077.41;5067315;28;20032;-89
2022/11/18 12:15:09;;;;;;;9.52;2.28;;;;;;;11.33;88.81;100081.84;5068095;28;20040;-89
2022/11/18 12:17:58;;;;;;;6.38;2.05;;;;;;;12.55;84.85;100076.25;5064822;28;20093;-90
2022/11/18 12:21:12;;;;;;;5.03;2.00;;;;;;;12.72;84.24;100077.06;5060160;28;20518;-90
2022/11/18 12:23:42;;;;;;;5.77;1.80;;;;;;;12.73;79.13;100073.28;5033963;28;20032;-89
2022/11/18 12:26:41;;;;;;;;;;;;;;;;;;;;;
2022/11/18 12:29:19;;;;;;;9.27;2.30;;;;;;;12.27;79.71;100077.97;5086872;28;20058;-89
2022/11/18 12:31:49;;;;;;;9.52;1.90;;;;;;;11.95;79.40;100081.19;5073199;28;20040;-89
2022/11/18 12:34:37;;;;;;;5.47;1.95;;;;;;;11.49;82.79;100078.38;5061381;28;20431;-90
2022/11/18 12:37:34;;;;;;;;;;;;;;;;;;;;;
2022/11/18 12:40:02;;;;;;;6.50;1.63;;;;;;;11.18;84.94;100080.44;5073953;28;20495;-90
2022/11/18 12:45:43;;;;;;;4.90;2.17;;;;;;;11.03;85.76;100090.97;5074348;28;20048;-89
2022/11/18 12:48:35;;;;;;;8.50;2.13;;;;;;;10.88;87.29;100088.75;5056099;28;20044;-89
2022/11/18 12:51:47;;;;;;;7.00;1.67;;;;;;;10.75;87.66;100087.06;5056849;28;20029;-89
2022/11/18 12:54:24;;;;;;;7.82;2.50;;;;;;;10.72;87.61;100090.25;5055670;28;20028;-89
2022/11/18 12:56:52;;;;;;;8.65;2.60;;;;;;;10.76;87.77;100096.84;5055716;28;20086;-89
2022/11/18 12:59:54;;;;;;;10.27;2.55;;;;;;;10.75;88.38;100103.34;5073928;28;20092;-89
2022/11/18 13:02:20;;;;;;;10.45;2.35;;;;;;;10.63;88.77;100100.63;5072781;28;20048;-91
2022/11/18 13:05:15;;;;;;;6.83;2.33;;;;;;;10.57;89.43;100104.28;5055460;28;20060;-89
2022/11/18 13:10:45;;;;;;;10.35;2.28;;;;;;;10.69;88.69;100104.31;5073836;28;20063;-89
2022/11/18 13:13:31;;;;;;;7.00;2.10;;;;;;;11.27;88.26;100113.50;5056398;28;20098;-89
2022/11/18 13:19:38;;;;;;;8.77;2.17;;;;;;;11.76;84.33;100107.72;5050471;28;20040;-89
2022/11/18 13:25:32;;;;;;;;;;;;;;;;;;;;;
2022/11/18 13:28:19;;;;;;;8.48;2.00;;;;;;;11.23;85.68;100121.31;5073994;28;20388;-89
2022/11/18 13:31:28;;;;;;;9.43;2.47;;;;;;;11.06;87.17;100117.66;5055879;28;20052;-89
2022/11/18 13:34:09;;;;;;;;;;;;;;;;;;;;;
2022/11/18 13:36:49;;;;;;;12.23;2.65;;;;;;;10.67;87.94;100118.09;5073815;28;20049;-90
2022/11/18 13:39:25;;;;;;;7.82;2.03;;;;;;;10.58;88.92;100124.91;5074777;28;20037;-89
2022/11/18 13:42:06;;;;;;;11.27;2.30;;;;;;;10.57;89.49;100133.28;5056368;28;20055;-89
2022/11/18 13:44:38;;;;;;;8.90;1.75;;;;;;;10.57;89.33;100131.41;5076549;28;20059;-89
2022/11/18 13:47:41;;;;;;;;;;;;;;;;;;;;;
2022/11/18 13:50:26;;;;;;;;;;;;;;;;;;;;;
2022/11/18 13:53:28;;;;;;;6.43;2.22;;;;;;;10.81;89.77;100131.44;5083889;28;20475;-88
2022/11/18 13:56:02;;;;;;;6.68;2.30;;;;;;;10.84;89.42;100114.69;5081055;28;20032;-90
2022/11/18 13:58:52;;;;;;;7.32;2.03;;;;;;;10.79;89.71;100123.53;5101196;28;20040;-89
2022/11/18 14:01:30;;;;;;;;;;;;;;;;;;;;;
2022/11/18 14:07:34;;;;;;;5.57;2.15;;;;;;;10.37;91.00;100130.88;5099920;28;20040;-89
2022/11/18 14:10:17;;;;;;;;;;;;;;;;;;;;;
2022/11/18 14:13:24;;;;;;;;;;;;;;;;;;;;;
2022/11/18 14:16:03;;;;;;;5.80;2.20;;;;;;;10.34;92.41;100130.28;5100997;28;20138;-90
2022/11/18 14:18:33;;;;;;;7.30;1.80;;;;;;;10.27;93.50;100124.09;5080042;28;20039;-89
2022/11/18 14:21:03;;;;;;;10.30;1.90;;;;;;;10.05;94.55;100133.78;5064508;28;20082;-88
2022/11/18 14:24:02;;;;;;;4.78;1.70;;;;;;;9.78;95.17;100136.84;5083105;28;20452;-89
2022/11/18 14:26:39;;;;;;;5.47;1.90;;;;;;;9.63;96.94;100132.66;5081607;28;20131;-89
2022/11/18 14:29:24;;;;;;;6.37;2.13;;;;;;;9.61;96.79;100145.59;5098649;28;20089;-89
2022/11/18 14:32:24;;;;;;;10.45;2.13;;;;;;;9.60;96.89;100152.06;5080555;28;20036;-90
2022/11/18 14:35:02;;;;;;;10.18;2.40;;;;;;;9.52;97.41;100152.34;5079502;28;20040;-89
2022/11/18 14:37:30;;;;;;;5.20;1.75;;;;;;;9.49;96.92;100150.09;5080104;28;20043;-89
2022/11/18 14:40:15;;;;;;;8.20;1.92;;;;;;;9.51;97.16;100148.00;5078609;28;20048;-90
2022/11/18 14:42:42;;;;;;;6.13;1.50;;;;;;;9.45;95.13;100154.34;5081028;28;20051;-89
2022/11/18 14:45:15;;;;;;;7.05;1.60;;;;;;;9.43;95.17;100159.13;5080330;28;20476;-89
2022/11/18 14:47:46;;;;;;;5.47;2.20;;;;;;;9.40;95.51;100170.41;5079393;28;20388;-89
2022/11/18 14:50:17;;;;;;;9.32;1.90;;;;;;;9.24;95.99;100160.97;5062964;28;20055;-89
2022/11/18 14:53:13;;;;;;;7.13;2.05;;;;;;;9.10;98.34;100168.41;5098547;28;20396;-88
2022/11/18 14:55:56;;;;;;;4.87;1.77;;;;;;;8.90;100.00;100174.84;5092095;28;20047;-89
2022/11/18 14:58:25;;;;;;;5.93;2.10;;;;;;;8.73;100.00;100171.00;5080069;28;20046;-88